Time;durP1;ratioP1;P1;durP2;ratioP2;P2;SDS_P1;SDS_P2;PMS_P1;PMS_P2;Temp;Humidity;BMP_temperature;BMP_pressure;BME280_temperature;BME280_humidity;BME280_pressure;Samples;Min_cycle;Max_cycle;Signal;HPM_P1;HPM_P2
2022/03/14 00:01:44;;;;;;;16.70;6.38;;;;;;;;;;4965649;28;20115;-61
2022/03/14 00:04:13;;;;;;;14.30;7.57;;;;;;;;;;4963687;28;20054;-61
2022/03/14 00:06:38;;;;;;;17.30;7.30;;;;;;;;;;4966948;28;20038;-61
2022/03/14 00:09:07;;;;;;;12.63;5.90;;;;;;;;;;4981502;28;20133;-61
2022/03/14 00:11:35;;;;;;;11.35;5.82;;;;;;;;;;4968708;28;20034;-60
2022/03/14 00:14:08;;;;;;;13.13;6.47;;;;;;;;;;4967015;28;21358;-61
2022/03/14 00:16:39;;;;;;;13.07;6.05;;;;;;;;;;4970379;28;20033;-61
2022/03/14 00:19:05;;;;;;;12.60;5.90;;;;;;;;;;4965469;28;20081;-61
2022/03/14 00:21:30;;;;;;;14.57;6.72;;;;;;;;;;4968781;28;20163;-60
2022/03/14 00:23:57;;;;;;;11.15;6.63;;;;;;;;;;4970856;28;20430;-60
2022/03/14 00:26:23;;;;;;;12.82;6.47;;;;;;;;;;4968035;28;20038;-60
2022/03/14 00:28:49;;;;;;;15.00;7.53;;;;;;;;;;4948176;28;20646;-60
2022/03/14 00:31:17;;;;;;;13.38;6.88;;;;;;;;;;4971914;28;20033;-61
2022/03/14 00:33:43;;;;;;;12.70;6.18;;;;;;;;;;4970807;28;20045;-60
2022/03/14 00:36:09;;;;;;;14.98;6.18;;;;;;;;;;4970095;28;20030;-61
2022/03/14 00:38:36;;;;;;;15.68;7.35;;;;;;;;;;4968202;28;20057;-62
2022/03/14 00:41:08;;;;;;;12.27;6.40;;;;;;;;;;4963527;28;20164;-61
2022/03/14 00:43:36;;;;;;;15.45;6.70;;;;;;;;;;4967445;28;20064;-60
2022/03/14 00:46:03;;;;;;;15.48;6.65;;;;;;;;;;4969108;28;20030;-61
2022/03/14 00:48:30;;;;;;;14.57;6.82;;;;;;;;;;4968274;28;20042;-61
2022/03/14 00:50:56;;;;;;;18.98;6.80;;;;;;;;;;4965026;28;20644;-61
2022/03/14 00:53:24;;;;;;;15.02;6.47;;;;;;;;;;4953223;28;20046;-61
2022/03/14 00:55:50;;;;;;;14.77;6.75;;;;;;;;;;4970055;28;20149;-61
2022/03/14 00:58:16;;;;;;;11.60;6.38;;;;;;;;;;4961794;28;20551;-61
2022/03/14 01:00:43;;;;;;;11.73;6.35;;;;;;;;;;4970573;28;20457;-60
2022/03/14 01:03:10;;;;;;;14.40;6.35;;;;;;;;;;4968071;28;20043;-60
2022/03/14 01:05:36;;;;;;;13.82;6.57;;;;;;;;;;4968412;28;20038;-60
2022/03/14 01:08:03;;;;;;;16.95;6.70;;;;;;;;;;4969016;28;20034;-60
2022/03/14 01:10:29;;;;;;;13.63;6.13;;;;;;;;;;4969627;28;20060;-60
2022/03/14 01:12:54;;;;;;;16.50;6.80;;;;;;;;;;4966171;28;20050;-60
2022/03/14 01:15:21;;;;;;;13.32;6.63;;;;;;;;;;4968297;28;20037;-60
2022/03/14 01:17:46;;;;;;;16.70;6.85;;;;;;;;;;4967499;28;20493;-60
2022/03/14 01:20:14;;;;;;;15.05;7.50;;;;;;;;;;4950490;28;20034;-60
2022/03/14 01:22:40;;;;;;;11.75;6.32;;;;;;;;;;4966530;28;20038;-60
2022/03/14 01:25:05;;;;;;;12.90;6.68;;;;;;;;;;4969347;28;20022;-61
2022/03/14 01:27:31;;;;;;;15.40;6.60;;;;;;;;;;4965937;28;20531;-61
2022/03/14 01:29:57;;;;;;;11.75;6.25;;;;;;;;;;4968172;28;20246;-60
2022/03/14 01:32:22;;;;;;;10.48;6.07;;;;;;;;;;4979045;28;20038;-61
2022/03/14 01:34:48;;;;;;;14.18;6.80;;;;;;;;;;4966328;28;20040;-61
2022/03/14 01:37:14;;;;;;;11.73;6.55;;;;;;;;;;4966943;28;20030;-60
2022/03/14 01:39:42;;;;;;;18.08;6.70;;;;;;;;;;4968180;28;20062;-60
2022/03/14 01:42:08;;;;;;;16.17;7.10;;;;;;;;;;4966904;28;20031;-62
2022/03/14 01:44:34;;;;;;;12.15;6.72;;;;;;;;;;4968743;28;20042;-60
2022/03/14 01:47:00;;;;;;;14.00;6.85;;;;;;;;;;4971161;28;20039;-61
2022/03/14 01:49:25;;;;;;;12.98;6.45;;;;;;;;;;4962780;28;20046;-61
2022/03/14 01:51:55;;;;;;;13.32;6.50;;;;;;;;;;4948583;28;20037;-61
2022/03/14 01:54:23;;;;;;;14.10;7.10;;;;;;;;;;4966572;28;20129;-61
2022/03/14 01:56:50;;;;;;;13.02;6.57;;;;;;;;;;4968452;28;20506;-60
2022/03/14 01:59:15;;;;;;;20.40;7.65;;;;;;;;;;4966172;28;20026;-60
2022/03/14 02:01:41;;;;;;;12.75;6.68;;;;;;;;;;4966257;28;20046;-61
2022/03/14 02:04:08;;;;;;;13.40;6.72;;;;;;;;;;4953195;28;20128;-61
2022/03/14 02:06:37;;;;;;;13.75;6.55;;;;;;;;;;4966783;28;20035;-61
2022/03/14 02:09:05;;;;;;;13.50;6.95;;;;;;;;;;4981412;28;20041;-61
2022/03/14 02:11:31;;;;;;;16.10;6.57;;;;;;;;;;4975478;28;20128;-61
2022/03/14 02:13:56;;;;;;;11.77;6.65;;;;;;;;;;4966778;28;20483;-61
2022/03/14 02:16:22;;;;;;;11.07;6.05;;;;;;;;;;4967706;28;20590;-60
2022/03/14 02:18:48;;;;;;;11.90;6.25;;;;;;;;;;4966648;28;20090;-60
2022/03/14 02:21:14;;;;;;;12.85;6.72;;;;;;;;;;4967301;28;20800;-60
2022/03/14 02:23:40;;;;;;;14.82;6.65;;;;;;;;;;4965157;28;20049;-60
2022/03/14 02:26:06;;;;;;;12.43;6.47;;;;;;;;;;4964643;28;20097;-59
2022/03/14 02:28:31;;;;;;;14.50;6.20;;;;;;;;;;4962677;28;20026;-59
2022/03/14 02:30:57;;;;;;;9.23;5.70;;;;;;;;;;4966536;28;21032;-60
2022/03/14 02:33:23;;;;;;;12.60;6.30;;;;;;;;;;4976175;28;20038;-60
2022/03/14 02:35:49;;;;;;;12.27;6.47;;;;;;;;;;4975671;28;20046;-60
2022/03/14 02:38:16;;;;;;;10.90;6.28;;;;;;;;;;4960654;28;21854;-60
2022/03/14 02:40:48;;;;;;;12.70;6.22;;;;;;;;;;4966573;28;20056;-60
2022/03/14 02:43:16;;;;;;;15.57;6.85;;;;;;;;;;4965409;28;20116;-61
2022/03/14 02:45:47;;;;;;;12.68;5.75;;;;;;;;;;4964121;28;20037;-61
2022/03/14 02:48:13;;;;;;;10.68;5.55;;;;;;;;;;4963989;28;20056;-61
2022/03/14 02:50:43;;;;;;;11.32;5.07;;;;;;;;;;4965335;28;20026;-63
2022/03/14 02:53:13;;;;;;;9.90;5.78;;;;;;;;;;4976539;28;20750;-60
2022/03/14 02:55:44;;;;;;;11.25;5.72;;;;;;;;;;4959610;28;20475;-59
2022/03/14 02:58:10;;;;;;;12.32;6.40;;;;;;;;;;4965964;28;20026;-60
2022/03/14 03:00:37;;;;;;;12.27;5.65;;;;;;;;;;4966840;28;20030;-60
2022/03/14 03:03:04;;;;;;;10.05;5.60;;;;;;;;;;4967004;28;20113;-60
2022/03/14 03:05:31;;;;;;;11.75;5.57;;;;;;;;;;4979052;28;20478;-62
2022/03/14 03:08:01;;;;;;;10.38;5.85;;;;;;;;;;4966350;28;20166;-61
2022/03/14 03:10:28;;;;;;;10.30;5.88;;;;;;;;;;4966195;28;20043;-61
2022/03/14 03:12:53;;;;;;;12.65;5.43;;;;;;;;;;4965245;28;20114;-61
2022/03/14 03:15:19;;;;;;;9.93;4.95;;;;;;;;;;4965151;28;20041;-60
2022/03/14 03:17:46;;;;;;;13.23;6.47;;;;;;;;;;4965858;28;20133;-61
2022/03/14 03:20:12;;;;;;;13.43;6.05;;;;;;;;;;4976501;28;20125;-60
2022/03/14 03:22:39;;;;;;;14.30;5.93;;;;;;;;;;4964989;28;20030;-60
2022/03/14 03:25:08;;;;;;;12.68;5.78;;;;;;;;;;4963532;28;20077;-60
2022/03/14 03:27:33;;;;;;;15.25;5.40;;;;;;;;;;4960787;28;20085;-60
2022/03/14 03:29:59;;;;;;;13.77;5.95;;;;;;;;;;4959931;28;20044;-60
2022/03/14 03:32:25;;;;;;;8.00;4.82;;;;;;;;;;4964910;28;20108;-61
2022/03/14 03:34:50;;;;;;;10.75;5.53;;;;;;;;;;4964236;28;20482;-60
2022/03/14 03:37:16;;;;;;;11.00;5.55;;;;;;;;;;4960693;28;20573;-60
2022/03/14 03:39:42;;;;;;;9.48;5.13;;;;;;;;;;4955928;28;20072;-60
2022/03/14 03:42:08;;;;;;;11.65;5.28;;;;;;;;;;4964922;28;20041;-60
2022/03/14 03:44:34;;;;;;;17.85;5.55;;;;;;;;;;4981377;28;20034;-60
2022/03/14 03:47:00;;;;;;;7.60;4.95;;;;;;;;;;4963608;28;20042;-60
2022/03/14 03:49:26;;;;;;;10.20;5.53;;;;;;;;;;4979654;28;20026;-60
2022/03/14 03:51:52;;;;;;;8.93;4.43;;;;;;;;;;4967849;28;20089;-61
2022/03/14 03:54:18;;;;;;;10.55;4.57;;;;;;;;;;4984244;28;20046;-60
2022/03/14 03:56:43;;;;;;;7.45;4.80;;;;;;;;;;4971674;28;20140;-60
2022/03/14 03:59:09;;;;;;;11.60;4.90;;;;;;;;;;4979148;28;20026;-61
2022/03/14 04:01:35;;;;;;;8.10;4.18;;;;;;;;;;4979274;28;20050;-61
2022/03/14 04:04:01;;;;;;;9.85;4.30;;;;;;;;;;4983661;28;20633;-61
2022/03/14 04:06:29;;;;;;;8.70;4.63;;;;;;;;;;4980002;28;20030;-60
2022/03/14 04:08:55;;;;;;;6.20;3.83;;;;;;;;;;4970964;28;20034;-60
2022/03/14 04:11:21;;;;;;;6.18;3.85;;;;;;;;;;4970428;28;20027;-60
2022/03/14 04:13:48;;;;;;;6.20;3.78;;;;;;;;;;4979482;28;20069;-60
2022/03/14 04:16:17;;;;;;;6.03;3.25;;;;;;;;;;4979830;28;20647;-62
2022/03/14 04:18:43;;;;;;;8.23;3.92;;;;;;;;;;4968116;28;20049;-60
2022/03/14 04:21:09;;;;;;;7.57;3.90;;;;;;;;;;4970597;28;20039;-60
2022/03/14 04:23:35;;;;;;;7.32;4.07;;;;;;;;;;4982517;28;20037;-60
2022/03/14 04:26:00;;;;;;;8.25;3.92;;;;;;;;;;4948568;28;20868;-61
2022/03/14 04:28:28;;;;;;;14.35;4.22;;;;;;;;;;4953542;28;20037;-60
2022/03/14 04:30:54;;;;;;;8.32;4.28;;;;;;;;;;4969884;28;20038;-60
2022/03/14 04:33:22;;;;;;;7.18;3.55;;;;;;;;;;4969513;28;20041;-60
2022/03/14 04:35:48;;;;;;;5.60;3.20;;;;;;;;;;4980134;28;20690;-61
2022/03/14 04:38:13;;;;;;;7.32;3.35;;;;;;;;;;4979749;28;20023;-60
2022/03/14 04:40:39;;;;;;;5.50;3.17;;;;;;;;;;4970374;28;20030;-61
2022/03/14 04:43:08;;;;;;;5.75;3.63;;;;;;;;;;4972005;28;20049;-61
2022/03/14 04:45:35;;;;;;;5.22;3.25;;;;;;;;;;4969309;28;20041;-60
2022/03/14 04:48:02;;;;;;;8.23;2.78;;;;;;;;;;4981020;28;20022;-60
2022/03/14 04:50:28;;;;;;;5.53;3.15;;;;;;;;;;4947172;28;20037;-60
2022/03/14 04:52:54;;;;;;;5.78;2.95;;;;;;;;;;4969800;28;20045;-61
2022/03/14 04:55:19;;;;;;;5.45;2.92;;;;;;;;;;4968127;28;20124;-60
2022/03/14 04:57:45;;;;;;;6.18;3.08;;;;;;;;;;4982851;28;20030;-60
2022/03/14 05:00:11;;;;;;;4.68;2.33;;;;;;;;;;4963003;28;20180;-60
2022/03/14 05:02:36;;;;;;;4.75;2.72;;;;;;;;;;4963046;28;20118;-60
2022/03/14 05:05:04;;;;;;;3.30;2.35;;;;;;;;;;4968358;28;20042;-60
2022/03/14 05:07:32;;;;;;;4.78;2.67;;;;;;;;;;4965888;28;20030;-60
2022/03/14 05:09:59;;;;;;;4.93;2.42;;;;;;;;;;4969664;28;20045;-61
2022/03/14 05:12:25;;;;;;;3.88;2.55;;;;;;;;;;4968641;28;20030;-61
2022/03/14 05:14:51;;;;;;;4.93;2.80;;;;;;;;;;4969366;28;20037;-60
2022/03/14 05:17:20;;;;;;;4.38;2.58;;;;;;;;;;4981962;28;20172;-60
2022/03/14 05:19:45;;;;;;;6.95;2.88;;;;;;;;;;4976314;28;20911;-60
2022/03/14 05:22:11;;;;;;;5.18;2.65;;;;;;;;;;4967944;28;20034;-60
2022/03/14 05:24:39;;;;;;;3.78;2.33;;;;;;;;;;4963640;28;20041;-61
2022/03/14 05:27:06;;;;;;;5.18;2.80;;;;;;;;;;4961715;28;20031;-61
2022/03/14 05:29:32;;;;;;;3.22;2.20;;;;;;;;;;4967171;28;20047;-61
2022/03/14 05:31:58;;;;;;;4.47;2.58;;;;;;;;;;4980562;28;20038;-60
2022/03/14 05:34:23;;;;;;;3.42;2.10;;;;;;;;;;4960739;28;20023;-61
2022/03/14 05:36:49;;;;;;;3.55;2.22;;;;;;;;;;4965651;28;20557;-61
2022/03/14 05:39:14;;;;;;;6.15;2.55;;;;;;;;;;4976979;28;20034;-61
2022/03/14 05:41:40;;;;;;;3.25;2.40;;;;;;;;;;4967376;28;20026;-60
2022/03/14 05:44:08;;;;;;;5.47;2.40;;;;;;;;;;4959291;28;20130;-62
2022/03/14 05:46:34;;;;;;;4.85;2.30;;;;;;;;;;4979650;28;20038;-61
2022/03/14 05:48:59;;;;;;;4.32;2.60;;;;;;;;;;4965511;28;20041;-61
2022/03/14 05:51:25;;;;;;;5.30;2.70;;;;;;;;;;4964100;28;20402;-61
2022/03/14 05:53:50;;;;;;;3.65;2.28;;;;;;;;;;4965303;28;20038;-61
2022/03/14 05:56:16;;;;;;;4.82;2.80;;;;;;;;;;4966028;28;20084;-61
2022/03/14 05:58:42;;;;;;;4.75;2.60;;;;;;;;;;4949556;28;20050;-62
2022/03/14 06:01:07;;;;;;;6.75;2.70;;;;;;;;;;4969094;28;20724;-60
2022/03/14 06:03:32;;;;;;;5.05;2.78;;;;;;;;;;4960777;28;20148;-61
2022/03/14 06:05:58;;;;;;;3.92;2.80;;;;;;;;;;4968611;28;20038;-61
2022/03/14 06:08:24;;;;;;;4.70;2.85;;;;;;;;;;4960316;28;20068;-61
2022/03/14 06:10:49;;;;;;;5.00;2.60;;;;;;;;;;4967656;28;20502;-62
2022/03/14 06:13:15;;;;;;;7.72;2.55;;;;;;;;;;4958147;28;20034;-61
2022/03/14 06:15:41;;;;;;;7.18;2.97;;;;;;;;;;4961161;28;20409;-62
2022/03/14 06:18:07;;;;;;;4.85;3.25;;;;;;;;;;4968219;28;20045;-61
2022/03/14 06:20:32;;;;;;;5.32;3.00;;;;;;;;;;4966019;28;20033;-62
2022/03/14 06:22:58;;;;;;;5.63;3.08;;;;;;;;;;4968336;28;20037;-62
2022/03/14 06:25:24;;;;;;;8.43;2.65;;;;;;;;;;4978307;28;20450;-61
2022/03/14 06:27:49;;;;;;;4.70;2.97;;;;;;;;;;4965483;28;20048;-61
2022/03/14 06:30:15;;;;;;;4.78;3.15;;;;;;;;;;4966657;28;20041;-62
2022/03/14 06:32:42;;;;;;;5.38;3.10;;;;;;;;;;4946473;28;20046;-61
2022/03/14 06:35:09;;;;;;;9.02;3.53;;;;;;;;;;4966779;28;20353;-61
2022/03/14 06:37:35;;;;;;;6.82;3.35;;;;;;;;;;4974981;28;20037;-61
2022/03/14 06:40:02;;;;;;;7.38;3.65;;;;;;;;;;4975783;28;20022;-61
2022/03/14 06:42:28;;;;;;;8.27;3.75;;;;;;;;;;4959844;28;21002;-61
2022/03/14 06:44:57;;;;;;;6.90;3.10;;;;;;;;;;4960191;28;20815;-61
2022/03/14 06:47:22;;;;;;;4.97;2.97;;;;;;;;;;4968371;28;20869;-61
2022/03/14 06:49:48;;;;;;;5.43;3.22;;;;;;;;;;4959516;28;20042;-61
2022/03/14 06:52:16;;;;;;;5.72;3.88;;;;;;;;;;4965204;28;20037;-61
2022/03/14 06:54:42;;;;;;;4.60;3.13;;;;;;;;;;4964599;28;20045;-62
2022/03/14 06:57:11;;;;;;;4.68;2.78;;;;;;;;;;4975987;28;20034;-60
2022/03/14 06:59:37;;;;;;;5.53;3.60;;;;;;;;;;4979958;28;20046;-60
2022/03/14 07:02:05;;;;;;;6.50;4.03;;;;;;;;;;4960160;28;20030;-61
2022/03/14 07:04:30;;;;;;;6.22;3.50;;;;;;;;;;4966426;28;20167;-61
2022/03/14 07:06:59;;;;;;;5.07;2.85;;;;;;;;;;4980596;28;20045;-62
2022/03/14 07:09:27;;;;;;;3.47;2.70;;;;;;;;;;4967080;28;20030;-61
2022/03/14 07:11:53;;;;;;;5.70;3.38;;;;;;;;;;4961617;28;20041;-61
2022/03/14 07:14:22;;;;;;;8.60;3.25;;;;;;;;;;4962242;28;20042;-61
2022/03/14 07:16:47;;;;;;;5.97;3.42;;;;;;;;;;4978401;28;20080;-60
2022/03/14 07:19:13;;;;;;;5.80;3.20;;;;;;;;;;4969743;28;20030;-61
2022/03/14 07:21:41;;;;;;;8.05;3.30;;;;;;;;;;4969038;28;20130;-61
2022/03/14 07:24:09;;;;;;;6.10;3.35;;;;;;;;;;4969367;28;20830;-61
2022/03/14 07:26:38;;;;;;;5.15;3.58;;;;;;;;;;4970272;28;20097;-62
2022/03/14 07:29:03;;;;;;;5.35;2.80;;;;;;;;;;4982170;28;20517;-62
2022/03/14 07:31:31;;;;;;;7.03;3.70;;;;;;;;;;4982729;28;20097;-63
2022/03/14 07:33:57;;;;;;;6.00;3.53;;;;;;;;;;4972455;28;20030;-63
2022/03/14 07:36:23;;;;;;;4.90;3.13;;;;;;;;;;4972957;28;20441;-63
2022/03/14 07:38:49;;;;;;;5.85;3.38;;;;;;;;;;4983830;28;20030;-64
2022/03/14 07:41:14;;;;;;;5.13;3.40;;;;;;;;;;4957824;28;20038;-63
2022/03/14 07:43:43;;;;;;;5.90;3.53;;;;;;;;;;4955326;28;20030;-63
2022/03/14 07:46:09;;;;;;;6.10;3.53;;;;;;;;;;4974430;28;20054;-62
2022/03/14 07:48:34;;;;;;;7.15;3.88;;;;;;;;;;4969701;28;20040;-63
2022/03/14 07:51:00;;;;;;;5.95;3.53;;;;;;;;;;4987245;28;20121;-63
2022/03/14 07:53:26;;;;;;;6.03;3.40;;;;;;;;;;4969345;28;20061;-63
2022/03/14 07:55:52;;;;;;;6.28;3.67;;;;;;;;;;4973293;28;21800;-65
2022/03/14 07:58:18;;;;;;;5.07;3.22;;;;;;;;;;4964932;28;20915;-64
2022/03/14 08:00:44;;;;;;;7.95;3.53;;;;;;;;;;4982919;28;20038;-64
2022/03/14 08:03:10;;;;;;;6.43;3.60;;;;;;;;;;4971816;28;20085;-65
2022/03/14 08:05:44;;;;;;;6.07;3.60;;;;;;;;;;4973295;28;20025;-66
2022/03/14 08:08:09;;;;;;;4.32;3.00;;;;;;;;;;4981890;28;20133;-64
2022/03/14 08:10:36;;;;;;;8.52;3.70;;;;;;;;;;4985781;28;20030;-65
2022/03/14 08:13:02;;;;;;;6.55;3.67;;;;;;;;;;4979113;28;20042;-65
2022/03/14 08:15:32;;;;;;;5.38;3.50;;;;;;;;;;4971718;28;20035;-65
2022/03/14 08:17:58;;;;;;;5.63;3.45;;;;;;;;;;4984269;28;20037;-65
2022/03/14 08:20:26;;;;;;;7.32;4.35;;;;;;;;;;4971044;28;20034;-65
2022/03/14 08:22:53;;;;;;;5.25;3.40;;;;;;;;;;4979869;28;20509;-63
2022/03/14 08:25:19;;;;;;;4.15;2.85;;;;;;;;;;4970335;28;20120;-65
2022/03/14 08:27:45;;;;;;;5.15;3.63;;;;;;;;;;4986137;28;20040;-65
2022/03/14 08:30:11;;;;;;;6.18;3.63;;;;;;;;;;4964113;28;20039;-63
2022/03/14 08:32:39;;;;;;;5.47;3.42;;;;;;;;;;4967775;28;20068;-63
2022/03/14 08:35:08;;;;;;;6.80;3.83;;;;;;;;;;4968133;28;20186;-63
2022/03/14 08:37:36;;;;;;;7.75;3.95;;;;;;;;;;4964249;28;20577;-65
2022/03/14 08:40:04;;;;;;;6.35;3.78;;;;;;;;;;4967381;28;20045;-63
2022/03/14 08:42:30;;;;;;;6.97;3.50;;;;;;;;;;4965769;28;20027;-64
2022/03/14 08:44:55;;;;;;;4.20;3.08;;;;;;;;;;4967928;28;20085;-64
2022/03/14 08:47:21;;;;;;;5.63;3.35;;;;;;;;;;4966235;28;20034;-64
2022/03/14 08:49:48;;;;;;;6.30;3.72;;;;;;;;;;4977664;28;20046;-63
2022/03/14 08:52:14;;;;;;;7.43;3.42;;;;;;;;;;4963244;28;20078;-64
2022/03/14 08:54:40;;;;;;;4.85;3.78;;;;;;;;;;4969960;28;20041;-63
2022/03/14 08:57:08;;;;;;;7.38;3.35;;;;;;;;;;4966970;28;20034;-62
2022/03/14 08:59:33;;;;;;;5.93;3.92;;;;;;;;;;4965153;28;20046;-62
2022/03/14 09:01:59;;;;;;;6.00;3.78;;;;;;;;;;4977050;28;20785;-62
2022/03/14 09:04:25;;;;;;;7.13;4.15;;;;;;;;;;4968477;28;20801;-63
2022/03/14 09:06:51;;;;;;;5.65;3.97;;;;;;;;;;4977190;28;20562;-63
2022/03/14 09:09:18;;;;;;;7.20;3.83;;;;;;;;;;4978849;28;20092;-62
2022/03/14 09:11:44;;;;;;;5.65;3.65;;;;;;;;;;4962253;28;20988;-62
2022/03/14 09:14:12;;;;;;;7.07;3.95;;;;;;;;;;4966041;28;20096;-62
2022/03/14 09:16:39;;;;;;;5.25;3.47;;;;;;;;;;4967918;28;20053;-63
2022/03/14 09:19:07;;;;;;;5.25;3.63;;;;;;;;;;4966853;28;20180;-62
2022/03/14 09:21:33;;;;;;;5.53;3.88;;;;;;;;;;4940163;28;20046;-62
2022/03/14 09:23:59;;;;;;;6.78;4.30;;;;;;;;;;4966043;28;20096;-62
2022/03/14 09:26:25;;;;;;;9.23;4.32;;;;;;;;;;4949242;28;20521;-62
2022/03/14 09:28:50;;;;;;;6.70;4.55;;;;;;;;;;4956680;28;20101;-62
2022/03/14 09:31:15;;;;;;;6.75;4.45;;;;;;;;;;4966426;28;20042;-62
2022/03/14 09:33:41;;;;;;;8.80;4.85;;;;;;;;;;4966440;28;21345;-62
2022/03/14 09:36:16;;;;;;;7.03;4.57;;;;;;;;;;4967024;28;20508;-63
2022/03/14 09:38:41;;;;;;;;;;;;;;;;;;4966226;28;20030;-62
2022/03/14 09:41:07;;;;;;;8.95;4.85;;;;;;;;;;4980623;28;20113;-63
2022/03/14 09:43:37;;;;;;;7.72;4.28;;;;;;;;;;4959730;28;20505;-63
2022/03/14 09:46:05;;;;;;;7.10;5.10;;;;;;;;;;4967331;28;20065;-64
2022/03/14 09:48:36;;;;;;;6.88;4.25;;;;;;;;;;4967263;28;20064;-63
2022/03/14 09:51:01;;;;;;;7.53;5.05;;;;;;;;;;4981045;28;20122;-63
2022/03/14 09:53:28;;;;;;;8.38;5.07;;;;;;;;;;4968323;28;20038;-63
2022/03/14 09:55:55;;;;;;;10.00;5.80;;;;;;;;;;4977475;28;20236;-63
2022/03/14 09:58:22;;;;;;;10.77;5.28;;;;;;;;;;4964667;28;20097;-61
2022/03/14 10:00:48;;;;;;;7.60;4.63;;;;;;;;;;4982273;28;20034;-60
2022/03/14 10:03:18;;;;;;;10.10;5.50;;;;;;;;;;4980607;28;20050;-58
2022/03/14 10:05:46;;;;;;;11.82;6.05;;;;;;;;;;4967023;28;20092;-58
2022/03/14 10:08:12;;;;;;;15.77;7.05;;;;;;;;;;4964718;28;20410;-58
2022/03/14 10:10:39;;;;;;;25.65;10.35;;;;;;;;;;4966087;28;20050;-59
2022/03/14 10:13:16;;;;;;;27.55;12.65;;;;;;;;;;4979287;28;20045;-61
2022/03/14 10:15:45;;;;;;;23.67;11.88;;;;;;;;;;4979254;28;20034;-60
2022/03/14 10:18:18;;;;;;;28.73;12.13;;;;;;;;;;4959019;28;20046;-59
2022/03/14 10:20:45;;;;;;;;;;;;;;;;;;4981177;28;20124;-60
2022/03/14 10:23:14;;;;;;;18.63;8.65;;;;;;;;;;4966037;28;20312;-61
2022/03/14 10:25:43;;;;;;;21.42;9.55;;;;;;;;;;4948208;28;20045;-59
2022/03/14 10:28:13;;;;;;;18.70;9.32;;;;;;;;;;4980334;28;20038;-59
2022/03/14 10:30:39;;;;;;;17.92;7.63;;;;;;;;;;4967454;28;20042;-62
2022/03/14 10:33:05;;;;;;;19.05;8.88;;;;;;;;;;4964266;28;20042;-61
2022/03/14 10:35:35;;;;;;;16.05;8.05;;;;;;;;;;4980408;28;20029;-60
2022/03/14 10:38:06;;;;;;;18.33;8.90;;;;;;;;;;4964619;28;22413;-61
2022/03/14 10:40:38;;;;;;;15.05;7.97;;;;;;;;;;4967213;28;20069;-61
2022/03/14 10:43:08;;;;;;;15.65;7.75;;;;;;;;;;4963794;28;21022;-59
2022/03/14 10:45:37;;;;;;;16.20;5.95;;;;;;;;;;4966107;28;20040;-60
2022/03/14 10:48:05;;;;;;;15.05;7.10;;;;;;;;;;4964390;28;20030;-60
2022/03/14 10:50:34;;;;;;;19.17;7.07;;;;;;;;;;4949763;28;20805;-60
2022/03/14 10:53:10;;;;;;;18.73;6.40;;;;;;;;;;4965418;28;20553;-59
2022/03/14 10:55:38;;;;;;;15.05;6.80;;;;;;;;;;4943504;28;21911;-60
2022/03/14 10:58:08;;;;;;;17.58;6.88;;;;;;;;;;4962444;28;20097;-58
2022/03/14 11:01:04;;;;;;;14.93;5.70;;;;;;;;;;4967030;28;20046;-59
2022/03/14 11:03:33;;;;;;;14.73;6.03;;;;;;;;;;4957384;28;21971;-59
2022/03/14 11:06:02;;;;;;;14.98;5.82;;;;;;;;;;4967803;28;20122;-60
2022/03/14 11:08:34;;;;;;;17.23;5.85;;;;;;;;;;4964149;28;20474;-59
2022/03/14 11:11:04;;;;;;;15.30;5.28;;;;;;;;;;4948402;28;20132;-59
2022/03/14 11:13:38;;;;;;;17.35;5.15;;;;;;;;;;4958835;28;20042;-59
2022/03/14 11:16:06;;;;;;;14.50;4.97;;;;;;;;;;4964559;28;20041;-59
2022/03/14 11:18:37;;;;;;;18.35;5.88;;;;;;;;;;4956991;28;20100;-60
2022/03/14 11:21:03;;;;;;;19.77;7.28;;;;;;;;;;4964871;28;20046;-60
2022/03/14 11:23:31;;;;;;;19.90;6.95;;;;;;;;;;4974273;28;20483;-59
2022/03/14 11:25:57;;;;;;;22.35;6.18;;;;;;;;;;4963833;28;20038;-60
2022/03/14 11:28:29;;;;;;;20.52;6.10;;;;;;;;;;4977580;28;20108;-59
2022/03/14 11:30:59;;;;;;;15.40;5.75;;;;;;;;;;4965466;28;20038;-59
2022/03/14 11:33:32;;;;;;;17.10;5.40;;;;;;;;;;4963780;28;20077;-60
2022/03/14 11:36:02;;;;;;;20.67;5.70;;;;;;;;;;4977201;28;20042;-60
2022/03/14 11:38:29;;;;;;;21.80;7.10;;;;;;;;;;4964751;28;20077;-60
2022/03/14 11:40:57;;;;;;;21.27;6.03;;;;;;;;;;4960741;28;20023;-60
2022/03/14 11:43:27;;;;;;;20.75;5.90;;;;;;;;;;4966100;28;20043;-58
2022/03/14 11:45:58;;;;;;;16.70;5.72;;;;;;;;;;4973504;28;20548;-58
2022/03/14 11:48:23;;;;;;;15.57;5.70;;;;;;;;;;4965379;28;20037;-58
2022/03/14 11:50:55;;;;;;;21.02;5.57;;;;;;;;;;4977897;28;21204;-59
2022/03/14 11:53:22;;;;;;;18.23;5.32;;;;;;;;;;4967290;28;21167;-58
2022/03/14 11:55:50;;;;;;;15.25;6.65;;;;;;;;;;4964774;28;20086;-59
2022/03/14 11:58:28;;;;;;;17.45;6.00;;;;;;;;;;4960635;28;20031;-58
2022/03/14 12:00:53;;;;;;;19.27;6.07;;;;;;;;;;4961906;28;20034;-59
2022/03/14 12:03:35;;;;;;;18.48;6.55;;;;;;;;;;4962612;28;21421;-58
2022/03/14 12:06:01;;;;;;;20.38;6.55;;;;;;;;;;4971459;28;20066;-58
2022/03/14 12:08:26;;;;;;;20.45;6.43;;;;;;;;;;4968022;28;20130;-58
2022/03/14 12:10:54;;;;;;;14.75;6.70;;;;;;;;;;4966323;28;20038;-58
2022/03/14 12:13:41;;;;;;;22.90;5.78;;;;;;;;;;4965262;28;20034;-59
2022/03/14 12:16:26;;;;;;;11.98;6.05;;;;;;;;;;4944923;28;20038;-60
2022/03/14 12:18:51;;;;;;;14.55;5.90;;;;;;;;;;4980839;28;20030;-58
2022/03/14 12:21:42;;;;;;;15.25;6.45;;;;;;;;;;4962616;28;20038;-60
2022/03/14 12:24:17;;;;;;;16.35;6.90;;;;;;;;;;4966074;28;20050;-60
2022/03/14 12:26:43;;;;;;;22.53;8.60;;;;;;;;;;4969929;28;20154;-59
2022/03/14 12:29:31;;;;;;;22.50;8.38;;;;;;;;;;4984072;28;20952;-60
2022/03/14 12:32:15;;;;;;;19.40;8.32;;;;;;;;;;4967928;28;20069;-58
2022/03/14 12:34:41;;;;;;;30.27;7.80;;;;;;;;;;4952984;28;20576;-58
2022/03/14 12:37:23;;;;;;;24.55;8.00;;;;;;;;;;4979054;28;20046;-59
2022/03/14 12:39:50;;;;;;;19.25;7.50;;;;;;;;;;4970798;28;20072;-57
2022/03/14 12:42:23;;;;;;;17.00;7.40;;;;;;;;;;4968749;28;21074;-58
2022/03/14 12:45:15;;;;;;;20.02;6.50;;;;;;;;;;4963893;28;20109;-60
2022/03/14 12:47:51;;;;;;;25.30;7.78;;;;;;;;;;4971782;28;20125;-58
2022/03/14 12:50:36;;;;;;;19.40;7.60;;;;;;;;;;4986338;28;20118;-59
2022/03/14 12:53:02;;;;;;;14.82;6.78;;;;;;;;;;4970501;28;20034;-60
2022/03/14 12:55:27;;;;;;;18.63;7.20;;;;;;;;;;4965539;28;20894;-59
2022/03/14 12:57:53;;;;;;;26.25;7.45;;;;;;;;;;4971777;28;20023;-59
2022/03/14 13:00:18;;;;;;;17.30;7.32;;;;;;;;;;4969933;28;20033;-59
2022/03/14 13:02:44;;;;;;;17.52;6.50;;;;;;;;;;4962882;28;20326;-58
2022/03/14 13:05:17;;;;;;;18.13;7.15;;;;;;;;;;4965599;28;20034;-58
2022/03/14 13:08:01;;;;;;;14.85;6.00;;;;;;;;;;4970288;28;20101;-57
2022/03/14 13:10:39;;;;;;;13.40;6.10;;;;;;;;;;4979409;28;20394;-59
2022/03/14 13:13:05;;;;;;;18.08;5.75;;;;;;;;;;4949573;28;20127;-58
2022/03/14 13:15:33;;;;;;;21.60;7.28;;;;;;;;;;4967947;28;21406;-58
2022/03/14 13:17:58;;;;;;;18.58;6.30;;;;;;;;;;4969450;28;20136;-57
2022/03/14 13:20:26;;;;;;;21.48;6.60;;;;;;;;;;4969555;28;20030;-59
2022/03/14 13:22:52;;;;;;;14.98;4.53;;;;;;;;;;4948397;28;20038;-59
2022/03/14 13:25:30;;;;;;;14.85;5.25;;;;;;;;;;4969677;28;20030;-58
2022/03/14 13:27:56;;;;;;;11.93;5.40;;;;;;;;;;4967634;28;20039;-58
2022/03/14 13:30:24;;;;;;;19.05;4.80;;;;;;;;;;4967475;28;20488;-57
2022/03/14 13:32:50;;;;;;;13.35;4.80;;;;;;;;;;4969606;28;20121;-59
2022/03/14 13:35:18;;;;;;;13.73;5.65;;;;;;;;;;4955579;28;20044;-58
2022/03/14 13:37:44;;;;;;;13.27;5.20;;;;;;;;;;4977073;28;21915;-60
2022/03/14 13:40:16;;;;;;;14.88;6.05;;;;;;;;;;4978980;28;20037;-58
2022/03/14 13:42:44;;;;;;;19.08;5.07;;;;;;;;;;4968260;28;20051;-58
2022/03/14 13:45:10;;;;;;;23.92;4.57;;;;;;;;;;4967116;28;20164;-59
2022/03/14 13:47:39;;;;;;;18.85;4.88;;;;;;;;;;4984285;28;20034;-59
2022/03/14 13:50:07;;;;;;;16.80;4.60;;;;;;;;;;4968209;28;20376;-60
2022/03/14 13:52:32;;;;;;;16.27;4.95;;;;;;;;;;4982302;28;20044;-60
2022/03/14 13:54:58;;;;;;;12.55;3.80;;;;;;;;;;4966271;28;20047;-60
2022/03/14 13:57:24;;;;;;;12.63;4.20;;;;;;;;;;4968075;28;20045;-58
2022/03/14 13:59:53;;;;;;;11.93;4.25;;;;;;;;;;4967304;28;20038;-58
2022/03/14 14:02:22;;;;;;;11.35;3.70;;;;;;;;;;4978038;28;20099;-59
2022/03/14 14:04:55;;;;;;;13.95;4.05;;;;;;;;;;4968274;28;20038;-60
2022/03/14 14:07:29;;;;;;;14.30;3.92;;;;;;;;;;4963254;28;20459;-58
2022/03/14 14:09:55;;;;;;;11.05;3.92;;;;;;;;;;4959978;28;20469;-60
2022/03/14 14:12:21;;;;;;;16.02;4.30;;;;;;;;;;4966891;28;20039;-59
2022/03/14 14:14:56;;;;;;;8.85;3.65;;;;;;;;;;4967248;28;20536;-59
2022/03/14 14:17:25;;;;;;;8.82;3.95;;;;;;;;;;4968285;28;20181;-60
2022/03/14 14:20:12;;;;;;;15.82;3.90;;;;;;;;;;4968723;28;20034;-60
2022/03/14 14:22:43;;;;;;;14.80;2.75;;;;;;;;;;4968784;28;20038;-58
2022/03/14 14:25:12;;;;;;;8.77;3.65;;;;;;;;;;4966970;28;20042;-60
2022/03/14 14:27:59;;;;;;;12.55;3.10;;;;;;;;;;4964373;28;20490;-59
2022/03/14 14:30:25;;;;;;;11.23;3.92;;;;;;;;;;4966400;28;20364;-60
2022/03/14 14:32:51;;;;;;;12.35;4.28;;;;;;;;;;4967990;28;20057;-60
2022/03/14 14:35:17;;;;;;;8.52;2.88;;;;;;;;;;4966096;28;20038;-59
2022/03/14 14:37:42;;;;;;;11.82;2.88;;;;;;;;;;4981145;28;20038;-59
2022/03/14 14:40:08;;;;;;;7.35;2.75;;;;;;;;;;4960921;28;20034;-60